You are not logged in, Click here to log in
ICAO: WADD Country: 印度尼西亞-尼峇里省的一座國際機場,為峇里島唯一的國際機場
Latitude: -8.74672 Longitude: 115.167
Total Arrivals: 15 Total Departures: 16
Latest Arrival: JQ117 (WSSS-WADD)Arthur. Kung Latest Departure: A7V0 (WADD-YSSY)Arthur. Kung
Scenery:
METAR : WADD 151630Z 11011KT 9999 FEW019 24/23 Q1012 NOSIG

伍拉·賴國際機場 DPS